createdAt,value
2022-08-11T03:02:52.227Z,56.10
2022-08-11T03:05:37.612Z,55.80
2022-08-11T03:08:41.754Z,55.90
2022-08-11T03:11:34.169Z,55.70
2022-08-11T03:14:33.275Z,55.60
2022-08-11T03:17:11.699Z,55.60
2022-08-11T03:20:01.247Z,55.70
2022-08-11T03:23:04.699Z,55.80
2022-08-11T03:25:55.435Z,56.20
2022-08-11T03:28:30.436Z,55.70
2022-08-11T03:31:09.237Z,55.50
2022-08-11T03:34:04.145Z,55.50
2022-08-11T03:37:16.746Z,55.50
2022-08-11T03:39:57.214Z,55.50
2022-08-11T03:42:33.208Z,55.50
2022-08-11T03:45:08.297Z,55.70
2022-08-11T03:47:52.622Z,55.80
2022-08-11T03:50:51.850Z,55.70
2022-08-11T03:53:45.195Z,55.70
2022-08-11T03:57:05.170Z,55.70
2022-08-11T04:00:12.247Z,55.80
2022-08-11T04:03:31.102Z,56.10
2022-08-11T04:06:56.181Z,56.20
2022-08-11T04:10:15.456Z,56.40
2022-08-11T04:13:20.474Z,57.10
2022-08-11T04:16:11.339Z,57.40
2022-08-11T04:19:22.352Z,57.10
2022-08-11T04:22:23.315Z,56.70
2022-08-11T04:25:29.958Z,56.70
2022-08-11T04:28:43.042Z,56.40
2022-08-11T04:31:44.089Z,56.10
2022-08-11T04:34:38.254Z,56.40
2022-08-11T04:37:37.130Z,57.40
2022-08-11T04:40:32.839Z,57.00
2022-08-11T04:43:32.398Z,57.40
2022-08-11T04:46:33.918Z,60.40
2022-08-11T04:50:16.269Z,61.20
2022-08-11T04:53:27.538Z,61.80
2022-08-11T04:56:30.268Z,61.80
2022-08-11T04:59:52.114Z,61.40
2022-08-11T05:03:02.117Z,59.50
2022-08-11T05:05:54.721Z,58.90
2022-08-11T05:09:02.579Z,59.00
2022-08-11T05:12:12.946Z,59.30
2022-08-11T05:15:06.905Z,59.00
2022-08-11T05:18:13.346Z,59.00
2022-08-11T05:21:08.723Z,59.30
2022-08-11T05:23:59.265Z,60.00
2022-08-11T05:26:49.093Z,59.70
2022-08-11T05:30:03.139Z,60.70
2022-08-11T05:32:59.329Z,60.90
2022-08-11T05:36:00.148Z,61.90
2022-08-11T05:38:43.805Z,63.50
2022-08-11T05:41:30.970Z,65.10
2022-08-11T05:44:20.994Z,65.40
2022-08-11T05:47:10.099Z,65.90
2022-08-11T05:49:57.760Z,65.40
2022-08-11T05:52:49.212Z,64.80
2022-08-11T05:56:02.200Z,62.50
2022-08-11T05:58:39.747Z,62.30
2022-08-11T06:01:10.651Z,62.70
2022-08-11T06:03:58.430Z,63.30
2022-08-11T06:06:29.115Z,62.70
2022-08-11T06:08:58.771Z,61.60
2022-08-11T06:11:44.458Z,60.00
2022-08-11T06:14:15.341Z,58.20
2022-08-11T06:16:44.268Z,58.00
2022-08-11T06:19:14.242Z,57.40
2022-08-11T06:21:46.411Z,56.50
2022-08-11T06:24:15.483Z,56.10
2022-08-11T06:27:11.400Z,55.80
2022-08-11T06:29:47.616Z,55.30
2022-08-11T06:32:16.947Z,55.10
2022-08-11T06:35:05.831Z,55.70
2022-08-11T06:37:46.636Z,56.00
2022-08-11T06:40:27.294Z,55.60
2022-08-11T06:43:02.125Z,55.40
2022-08-11T06:45:37.979Z,55.40
2022-08-11T06:48:11.304Z,55.50
2022-08-11T06:50:58.385Z,55.40
2022-08-11T06:53:26.497Z,55.60
2022-08-11T06:56:18.123Z,56.90
2022-08-11T06:59:07.829Z,55.80
2022-08-11T07:01:47.717Z,59.70
2022-08-11T07:04:29.110Z,55.70
2022-08-11T07:07:55.873Z,55.70
2022-08-11T07:11:04.352Z,55.30
2022-08-11T07:13:54.312Z,54.60
2022-08-11T07:16:27.402Z,54.50
2022-08-11T07:19:18.032Z,54.10
2022-08-11T07:22:05.233Z,54.30
2022-08-11T07:25:02.374Z,56.50
2022-08-11T07:27:55.550Z,55.60
2022-08-11T07:30:25.321Z,55.20
2022-08-11T07:32:55.852Z,53.80
2022-08-11T07:35:34.015Z,53.90
2022-08-11T07:38:07.280Z,54.50
2022-08-11T07:40:37.631Z,53.80
2022-08-11T07:43:07.210Z,55.90
2022-08-11T07:45:53.098Z,54.70
2022-08-11T07:48:39.039Z,55.70
2022-08-11T07:51:24.969Z,55.50
2022-08-11T07:53:58.564Z,53.70
2022-08-11T07:56:55.328Z,55.80
2022-08-11T08:00:03.911Z,53.90
2022-08-11T08:02:58.029Z,53.00
2022-08-11T08:05:44.618Z,53.90
2022-08-11T08:08:32.473Z,55.90
2022-08-11T08:11:22.431Z,53.60
2022-08-11T08:14:14.663Z,53.30
2022-08-11T08:17:01.844Z,53.00
2022-08-11T08:19:30.230Z,55.50
2022-08-11T08:22:06.090Z,55.50
2022-08-11T08:24:48.002Z,53.30
2022-08-11T08:27:16.371Z,55.30
2022-08-11T08:30:04.583Z,55.50
2022-08-11T08:32:35.061Z,56.70
2022-08-11T08:35:04.093Z,57.10
2022-08-11T08:37:45.935Z,54.30
2022-08-11T08:40:16.250Z,55.80
2022-08-11T08:42:51.399Z,55.50
2022-08-11T08:45:22.561Z,54.20
2022-08-11T08:47:58.124Z,54.40
2022-08-11T08:50:50.335Z,55.50
2022-08-11T08:53:24.158Z,54.40
2022-08-11T08:55:56.709Z,54.10
2022-08-11T08:58:25.983Z,57.20
2022-08-11T09:00:57.513Z,54.00
2022-08-11T09:04:06.991Z,54.00
2022-08-11T09:06:16.670Z,54.90
2022-08-11T09:08:45.890Z,54.30
2022-08-11T09:11:38.671Z,57.50
2022-08-11T09:14:11.520Z,54.00
2022-08-11T09:16:44.766Z,57.10
2022-08-11T09:19:17.431Z,56.40
2022-08-11T09:22:02.227Z,59.20
2022-08-11T09:24:47.813Z,54.40
2022-08-11T09:27:16.019Z,55.20
2022-08-11T09:29:45.521Z,58.00
2022-08-11T09:32:15.396Z,57.10
2022-08-11T09:34:44.191Z,54.70
2022-08-11T09:37:55.999Z,55.60
2022-08-11T09:40:30.336Z,55.40
2022-08-11T09:43:17.102Z,54.30
2022-08-11T09:45:50.502Z,53.80
2022-08-11T09:48:21.098Z,58.60
2022-08-11T09:50:51.265Z,54.60
2022-08-11T09:53:36.573Z,56.60
2022-08-11T09:56:30.388Z,54.10
2022-08-11T09:59:00.327Z,55.90
2022-08-11T10:01:32.115Z,57.30
2022-08-11T10:04:05.065Z,53.70
2022-08-11T10:06:54.506Z,55.00
2022-08-11T10:09:25.540Z,57.10
2022-08-11T10:11:58.892Z,55.10
2022-08-11T10:14:46.762Z,51.10
2022-08-11T10:17:16.909Z,56.10
2022-08-11T10:20:02.051Z,52.20
2022-08-11T10:22:52.460Z,55.70
2022-08-11T10:25:39.666Z,52.00
2022-08-11T10:28:28.686Z,52.60
2022-08-11T10:31:16.921Z,54.40
2022-08-11T10:34:03.239Z,54.40
2022-08-11T10:36:34.503Z,55.40
2022-08-11T10:39:05.228Z,48.20
2022-08-11T10:42:08.420Z,52.60
2022-08-11T10:44:43.359Z,55.20
2022-08-11T10:47:32.655Z,54.00
2022-08-11T10:50:19.223Z,51.00
2022-08-11T10:53:08.043Z,51.50
2022-08-11T10:55:55.057Z,49.00
2022-08-11T10:58:44.996Z,53.90
2022-08-11T11:01:14.603Z,53.40
2022-08-11T11:03:43.554Z,52.50
2022-08-11T11:06:29.207Z,54.90
2022-08-11T11:09:05.122Z,52.40
2022-08-11T11:11:56.391Z,52.00
2022-08-11T11:14:49.793Z,51.60
2022-08-11T11:17:45.115Z,53.60
2022-08-11T11:20:37.372Z,53.10
2022-08-11T11:23:13.468Z,55.10
2022-08-11T11:26:07.392Z,52.80
2022-08-11T11:29:12.025Z,54.90
2022-08-11T11:31:55.428Z,54.40
2022-08-11T11:34:53.207Z,51.20
2022-08-11T11:37:23.535Z,54.60
2022-08-11T11:39:52.830Z,48.40
2022-08-11T11:42:23.909Z,53.90
2022-08-11T11:44:55.881Z,53.30
2022-08-11T11:47:25.025Z,47.60
2022-08-11T11:49:54.146Z,53.00
2022-08-11T11:52:23.077Z,52.50
2022-08-11T11:54:56.412Z,52.60
2022-08-11T11:57:59.201Z,54.40
2022-08-11T12:00:49.656Z,54.50
2022-08-11T12:03:18.913Z,50.10
2022-08-11T12:05:47.912Z,54.20
2022-08-11T12:08:16.991Z,48.40
2022-08-11T12:10:48.092Z,52.20
2022-08-11T12:13:36.586Z,46.70
2022-08-11T12:16:35.728Z,51.70
2022-08-11T12:18:56.445Z,53.30
2022-08-11T12:21:25.449Z,47.50
2022-08-11T12:24:14.673Z,51.10
2022-08-11T12:27:16.132Z,51.70
2022-08-11T12:29:54.464Z,51.30
2022-08-11T12:32:25.376Z,52.50
2022-08-11T12:34:55.776Z,50.70
2022-08-11T12:37:30.079Z,50.60
2022-08-11T12:40:42.692Z,49.10
2022-08-11T12:43:57.013Z,52.00
2022-08-11T12:46:32.481Z,50.30
2022-08-11T12:49:21.309Z,51.60
2022-08-11T12:52:12.485Z,51.70
2022-08-11T12:54:51.497Z,49.50
2022-08-11T12:57:44.109Z,46.40
2022-08-11T13:00:30.120Z,50.50
2022-08-11T13:03:17.627Z,49.20
2022-08-11T13:05:49.467Z,51.70
2022-08-11T13:08:18.309Z,51.70
2022-08-11T13:11:05.165Z,46.70
2022-08-11T13:13:54.702Z,43.70
2022-08-11T13:16:23.801Z,44.70
2022-08-11T13:18:53.759Z,44.90
2022-08-11T13:21:23.761Z,49.90
2022-08-11T13:24:00.686Z,50.10
2022-08-11T13:26:47.622Z,52.20
2022-08-11T13:29:22.347Z,49.60
2022-08-11T13:31:54.204Z,51.90
2022-08-11T13:34:27.165Z,51.60
2022-08-11T13:36:57.883Z,48.40
2022-08-11T13:39:29.867Z,50.00
2022-08-11T13:42:00.313Z,48.90
2022-08-11T13:44:31.300Z,45.70
2022-08-11T13:47:02.426Z,45.90
2022-08-11T13:49:32.945Z,49.10
2022-08-11T13:52:01.099Z,49.80
2022-08-11T13:54:32.725Z,50.30
2022-08-11T13:57:04.029Z,50.00
2022-08-11T13:59:51.740Z,44.70
2022-08-11T14:02:29.209Z,49.90
2022-08-11T14:05:04.699Z,49.10
2022-08-11T14:07:39.424Z,48.50
2022-08-11T14:10:10.203Z,45.90
2022-08-11T14:12:59.970Z,48.70
2022-08-11T14:15:32.013Z,47.60
2022-08-11T14:18:04.945Z,41.70
2022-08-11T14:20:50.540Z,40.20
2022-08-11T14:23:20.423Z,39.40
2022-08-11T14:26:03.410Z,38.40
2022-08-11T14:28:40.044Z,38.40
2022-08-11T14:31:12.946Z,38.10
2022-08-11T14:34:00.200Z,37.60
2022-08-11T14:36:34.924Z,37.40
2022-08-11T14:39:07.721Z,38.10
2022-08-11T14:42:07.489Z,37.20
2022-08-11T14:45:01.705Z,37.30
2022-08-11T14:47:32.405Z,37.40
2022-08-11T14:50:09.791Z,37.10
2022-08-11T14:52:46.551Z,37.00
2022-08-11T14:55:33.582Z,36.70
2022-08-11T14:58:02.496Z,36.20
2022-08-11T15:00:31.870Z,36.60
2022-08-11T15:03:12.878Z,36.00
2022-08-11T15:05:57.262Z,36.40
2022-08-11T15:08:51.602Z,36.30
2022-08-11T15:11:40.261Z,35.70
2022-08-11T15:14:09.764Z,36.10
2022-08-11T15:16:56.741Z,35.70
2022-08-11T15:19:41.012Z,35.70
2022-08-11T15:22:28.602Z,34.90
2022-08-11T15:24:59.592Z,35.40
2022-08-11T15:27:48.373Z,35.00
2022-08-11T15:30:34.860Z,35.00
2022-08-11T15:33:24.686Z,35.50
2022-08-11T15:36:11.739Z,35.00
2022-08-11T15:38:44.928Z,34.60
2022-08-11T15:41:33.987Z,35.10
2022-08-11T15:44:38.741Z,34.90
2022-08-11T15:47:14.215Z,35.50
2022-08-11T15:50:11.957Z,36.10
2022-08-11T15:52:38.729Z,36.40
2022-08-11T15:55:08.999Z,36.60
2022-08-11T15:57:57.723Z,37.10
2022-08-11T16:00:44.222Z,37.50
2022-08-11T16:04:06.215Z,37.80
2022-08-11T16:06:20.670Z,37.90
2022-08-11T16:08:56.226Z,38.20
2022-08-11T16:11:25.669Z,38.60
2022-08-11T16:14:13.669Z,38.10
2022-08-11T16:16:41.994Z,38.60
2022-08-11T16:19:11.578Z,38.20
2022-08-11T16:21:42.997Z,38.00
2022-08-11T16:27:03.508Z,38.10
2022-08-11T16:27:13.148Z,38.40
2022-08-11T16:29:46.387Z,38.80
2022-08-11T16:32:22.161Z,39.40
2022-08-11T16:35:14.401Z,38.50
2022-08-11T16:38:01.894Z,38.80
2022-08-11T16:40:31.095Z,38.90
2022-08-11T16:43:17.211Z,39.40
2022-08-11T16:46:05.022Z,39.40
2022-08-11T16:48:38.290Z,39.20
2022-08-11T16:51:07.435Z,39.40
2022-08-11T16:53:59.607Z,39.60
2022-08-11T16:56:31.167Z,40.10
2022-08-11T16:59:15.208Z,39.70
2022-08-11T17:01:49.119Z,40.20
2022-08-11T17:04:43.465Z,40.50
2022-08-11T17:07:42.337Z,40.00
2022-08-11T17:10:52.934Z,41.20
2022-08-11T17:13:28.139Z,40.20
2022-08-11T17:16:11.819Z,40.40
2022-08-11T17:18:46.838Z,40.70
2022-08-11T17:21:22.464Z,40.60
2022-08-11T17:23:55.097Z,41.10
2022-08-11T17:26:28.014Z,41.50
2022-08-11T17:29:00.264Z,41.50
2022-08-11T17:31:47.294Z,41.40
2022-08-11T17:34:34.552Z,41.20
2022-08-11T17:37:04.067Z,41.20
2022-08-11T17:39:33.273Z,41.20
2022-08-11T17:42:20.241Z,41.70
2022-08-11T17:45:06.844Z,41.20
2022-08-11T17:47:53.343Z,41.80
2022-08-11T17:50:23.138Z,42.30
2022-08-11T17:53:09.860Z,42.60
2022-08-11T17:55:57.851Z,42.40
2022-08-11T17:58:44.533Z,42.50
2022-08-11T18:01:13.898Z,43.30
2022-08-11T18:03:53.240Z,43.40
2022-08-11T18:06:33.983Z,43.10
2022-08-11T18:09:22.358Z,43.20
2022-08-11T18:12:11.864Z,42.90
2022-08-11T18:15:00.204Z,42.80
2022-08-11T18:17:45.947Z,43.60
2022-08-11T18:20:31.546Z,43.50
2022-08-11T18:23:21.471Z,44.20
2022-08-11T18:26:28.722Z,43.50
2022-08-11T18:29:16.327Z,43.80
2022-08-11T18:32:06.600Z,44.60
2022-08-11T18:34:58.820Z,45.10
2022-08-11T18:37:48.018Z,44.50
2022-08-11T18:40:38.626Z,45.20
2022-08-11T18:43:28.449Z,45.50
2022-08-11T18:46:18.430Z,46.70
2022-08-11T18:49:13.250Z,45.80
2022-08-11T18:52:06.506Z,45.70
2022-08-11T18:54:55.161Z,45.90
2022-08-11T18:57:50.112Z,45.70
2022-08-11T19:00:43.969Z,45.70
2022-08-11T19:03:32.954Z,45.80
2022-08-11T19:06:39.958Z,46.00
2022-08-11T19:09:28.830Z,46.20
2022-08-11T19:12:15.383Z,46.40
2022-08-11T19:15:04.164Z,46.50
2022-08-11T19:17:52.729Z,46.70
2022-08-11T19:20:41.763Z,46.80
2022-08-11T19:23:29.661Z,46.90
2022-08-11T19:26:16.685Z,47.10
2022-08-11T19:29:05.554Z,47.80
2022-08-11T19:31:53.415Z,47.80
2022-08-11T19:34:41.422Z,47.70
2022-08-11T19:37:29.191Z,47.40
2022-08-11T19:40:19.689Z,47.30
2022-08-11T19:43:14.798Z,46.50
2022-08-11T19:46:10.782Z,46.40
2022-08-11T19:49:00.005Z,46.30
2022-08-11T19:51:47.059Z,46.60
2022-08-11T19:54:43.157Z,46.60
2022-08-11T19:57:31.070Z,46.60
2022-08-11T20:00:19.645Z,47.40
2022-08-11T20:03:09.215Z,47.20
2022-08-11T20:06:00.134Z,47.80
2022-08-11T20:08:47.869Z,48.20
2022-08-11T20:11:35.974Z,48.30
2022-08-11T20:14:23.977Z,48.80
2022-08-11T20:17:11.672Z,48.90
2022-08-11T20:22:51.503Z,49.70
2022-08-11T20:25:41.205Z,50.00
2022-08-11T20:28:28.013Z,50.20
2022-08-11T20:31:14.910Z,50.40
2022-08-11T20:34:01.837Z,50.60
2022-08-11T20:36:54.507Z,50.50
2022-08-11T20:39:43.065Z,50.90
2022-08-11T20:42:32.015Z,50.80
2022-08-11T20:45:23.831Z,51.10
2022-08-11T20:48:14.879Z,51.20
2022-08-11T20:51:05.969Z,51.20
2022-08-11T20:53:53.746Z,51.20
2022-08-11T20:56:42.948Z,51.20
2022-08-11T20:59:29.762Z,51.20
2022-08-11T21:02:19.461Z,51.30
2022-08-11T21:05:05.348Z,51.20
2022-08-11T21:07:57.056Z,51.40
2022-08-11T21:10:47.094Z,51.40
2022-08-11T21:13:36.967Z,51.40
2022-08-11T21:16:26.082Z,51.60
2022-08-11T21:19:18.583Z,51.70
2022-08-11T21:22:06.681Z,51.50
2022-08-11T21:24:54.943Z,51.60
2022-08-11T21:27:41.831Z,51.60
